Time;durP1;ratioP1;P1;durP2;ratioP2;P2;SDS_P1;SDS_P2;PMS_P1;PMS_P2;Temp;Humidity;BMP_temperature;BMP_pressure;BME280_temperature;BME280_humidity;BME280_pressure;Samples;Min_cycle;Max_cycle;Signal;HPM_P1;HPM_P2
2024/01/10 00:01:26;;;;;;;29.55;16.80;;;-2.90;99.90;;;;;;5093954;28;20111;-77
2024/01/10 00:03:53;;;;;;;32.53;16.77;;;-2.80;99.90;;;;;;5075695;28;20121;-77
2024/01/10 00:06:19;;;;;;;31.38;16.98;;;-2.80;99.90;;;;;;5075500;28;20040;-77
2024/01/10 00:08:45;;;;;;;29.40;16.40;;;-2.90;99.90;;;;;;5075762;28;20399;-77
2024/01/10 00:11:10;;;;;;;27.13;16.40;;;-2.80;99.90;;;;;;5075740;28;20073;-77
2024/01/10 00:13:36;;;;;;;29.88;17.15;;;-2.90;99.90;;;;;;5093826;28;20032;-77
2024/01/10 00:16:01;;;;;;;30.20;15.40;;;-2.90;99.90;;;;;;5075568;28;20097;-77
2024/01/10 00:18:27;;;;;;;28.13;16.60;;;-2.90;99.90;;;;;;5075483;28;20046;-77
2024/01/10 00:20:55;;;;;;;33.00;16.67;;;-2.80;99.90;;;;;;5075821;28;20040;-77
2024/01/10 00:23:21;;;;;;;29.88;17.35;;;-2.80;99.90;;;;;;5058738;28;20515;-77
2024/01/10 00:25:48;;;;;;;32.95;16.65;;;-3.00;99.90;;;;;;5093531;28;20032;-77
2024/01/10 00:28:13;;;;;;;27.65;15.40;;;-2.90;99.90;;;;;;5058484;28;20077;-78
2024/01/10 00:30:39;;;;;;;30.42;17.17;;;-3.00;99.90;;;;;;5075294;28;20048;-77
2024/01/10 00:33:05;;;;;;;31.23;15.90;;;-2.90;99.90;;;;;;5075383;28;20070;-78
2024/01/10 00:35:31;;;;;;;28.65;16.55;;;-3.00;99.90;;;;;;5093650;28;20094;-77
2024/01/10 00:37:57;;;;;;;28.90;16.80;;;-3.00;99.90;;;;;;5075200;28;20036;-78
2024/01/10 00:40:23;;;;;;;29.65;17.10;;;-3.00;99.90;;;;;;5070064;28;20503;-77
2024/01/10 00:42:49;;;;;;;29.58;16.20;;;-3.00;99.90;;;;;;5088920;28;20070;-77
2024/01/10 00:45:15;;;;;;;28.77;16.13;;;-3.00;99.90;;;;;;5055064;28;20747;-78
2024/01/10 00:47:41;;;;;;;27.83;14.88;;;-2.90;99.90;;;;;;5054737;28;20051;-78
2024/01/10 00:50:07;;;;;;;28.15;16.38;;;-2.90;99.90;;;;;;5054797;28;20056;-78
2024/01/10 00:52:33;;;;;;;28.58;15.45;;;-3.00;99.90;;;;;;5072887;28;20032;-78
2024/01/10 00:54:58;;;;;;;33.13;17.20;;;-3.10;99.90;;;;;;5072699;28;20082;-78
2024/01/10 00:57:24;;;;;;;30.15;16.98;;;-3.00;99.90;;;;;;5054305;28;20097;-77
2024/01/10 00:59:49;;;;;;;29.13;16.58;;;-3.10;99.90;;;;;;5054112;28;20105;-78
2024/01/10 01:02:15;;;;;;;28.20;15.73;;;-2.90;99.90;;;;;;5054545;28;20076;-77
2024/01/10 01:04:41;;;;;;;31.92;16.83;;;-3.10;99.90;;;;;;5037625;28;20558;-77
2024/01/10 01:07:07;;;;;;;27.67;16.52;;;-3.00;99.90;;;;;;5053914;28;20078;-77
2024/01/10 01:09:34;;;;;;;30.45;16.63;;;-3.00;99.90;;;;;;5072196;28;20040;-77
2024/01/10 01:11:59;;;;;;;29.40;15.60;;;-3.10;99.90;;;;;;5087829;28;20408;-77
2024/01/10 01:14:25;;;;;;;28.55;15.63;;;-3.00;99.90;;;;;;5087881;28;20097;-77
2024/01/10 01:16:51;;;;;;;30.90;16.48;;;-2.90;99.90;;;;;;5037570;28;20032;-78
2024/01/10 01:19:16;;;;;;;28.58;15.38;;;-3.00;99.90;;;;;;5037503;28;20123;-78
2024/01/10 01:21:42;;;;;;;27.80;15.65;;;-3.10;99.90;;;;;;5054191;28;20036;-77
2024/01/10 01:24:08;;;;;;;32.17;16.95;;;-3.10;99.90;;;;;;5072009;28;20048;-77
2024/01/10 01:26:33;;;;;;;29.88;16.73;;;-3.10;99.90;;;;;;5071699;28;20508;-77
2024/01/10 01:28:59;;;;;;;32.88;16.20;;;-3.00;99.90;;;;;;5037369;28;20040;-77
2024/01/10 01:31:25;;;;;;;27.70;15.45;;;-3.00;99.90;;;;;;5071901;28;20549;-77
2024/01/10 01:33:50;;;;;;;30.40;16.13;;;-3.00;99.90;;;;;;5072183;28;20043;-77
2024/01/10 01:36:16;;;;;;;28.98;16.13;;;-3.00;99.90;;;;;;5037547;28;20044;-77
2024/01/10 01:38:42;;;;;;;27.20;16.38;;;-3.10;99.90;;;;;;5053792;28;20054;-77
2024/01/10 01:41:07;;;;;;;29.25;16.55;;;-3.10;99.90;;;;;;5053827;28;20037;-77
2024/01/10 01:43:33;;;;;;;34.30;17.50;;;-3.00;99.90;;;;;;5053892;28;20041;-77
2024/01/10 01:45:59;;;;;;;34.15;17.45;;;-3.00;99.90;;;;;;5087634;28;20116;-77
2024/01/10 01:48:25;;;;;;;32.92;16.05;;;-3.10;99.90;;;;;;5037413;28;20500;-77
2024/01/10 01:51:05;;;;;;;32.33;17.08;;;-3.20;99.90;;;;;;5071518;28;20086;-77
2024/01/10 01:53:33;;;;;;;32.72;16.48;;;-3.10;99.90;;;;;;5053738;28;20041;-76
2024/01/10 01:56:03;;;;;;;28.35;15.30;;;-3.10;99.90;;;;;;5055968;28;20036;-78
2024/01/10 01:58:29;;;;;;;28.02;16.10;;;-3.00;99.90;;;;;;5055590;28;20176;-77
2024/01/10 02:00:55;;;;;;;31.98;17.05;;;-3.00;99.90;;;;;;5071977;28;20045;-77
2024/01/10 02:03:21;;;;;;;30.55;16.50;;;-3.00;99.90;;;;;;5053857;28;20067;-77
2024/01/10 02:05:47;;;;;;;32.45;17.55;;;-3.00;99.90;;;;;;5053752;28;20493;-77
2024/01/10 02:08:13;;;;;;;26.88;15.75;;;-3.10;99.90;;;;;;5036712;28;20540;-77
2024/01/10 02:10:39;;;;;;;30.00;16.40;;;-3.00;99.90;;;;;;5070575;28;20032;-76
2024/01/10 02:13:06;;;;;;;33.65;17.52;;;-3.00;99.90;;;;;;5053856;28;20114;-77
2024/01/10 02:15:31;;;;;;;31.13;17.38;;;-3.00;99.90;;;;;;5053813;28;20511;-77
2024/01/10 02:17:57;;;;;;;28.02;15.55;;;-3.00;99.90;;;;;;5071341;28;20068;-77
2024/01/10 02:20:23;;;;;;;30.15;18.08;;;-3.00;99.90;;;;;;5053562;28;20072;-77
2024/01/10 02:22:50;;;;;;;29.38;15.63;;;-3.00;99.90;;;;;;5071325;28;20044;-77
2024/01/10 02:25:16;;;;;;;30.85;17.90;;;-3.00;99.90;;;;;;5086952;28;20040;-77
2024/01/10 02:27:41;;;;;;;28.75;16.00;;;-2.90;99.90;;;;;;5053550;28;20055;-77
2024/01/10 02:30:08;;;;;;;32.80;16.40;;;-3.00;99.90;;;;;;5053287;28;20500;-77
2024/01/10 02:32:35;;;;;;;25.35;15.38;;;-2.90;99.90;;;;;;5087282;28;20099;-77
2024/01/10 02:35:00;;;;;;;30.45;16.70;;;-2.80;99.90;;;;;;5053336;28;20033;-77
2024/01/10 02:37:26;;;;;;;28.85;17.25;;;-2.90;99.90;;;;;;5071174;28;20642;-77
2024/01/10 02:39:51;;;;;;;28.50;15.80;;;-3.00;99.90;;;;;;5053047;28;20036;-77
2024/01/10 02:42:17;;;;;;;26.38;15.57;;;-2.90;99.90;;;;;;5053503;28;20032;-77
2024/01/10 02:44:43;;;;;;;29.17;15.55;;;-2.90;99.90;;;;;;5053395;28;20546;-77
2024/01/10 02:47:09;;;;;;;30.15;17.33;;;-2.80;99.90;;;;;;5052948;28;20420;-77
2024/01/10 02:49:35;;;;;;;28.65;15.15;;;-2.90;99.90;;;;;;5052944;28;20041;-77
2024/01/10 02:52:01;;;;;;;30.23;14.88;;;-3.00;99.90;;;;;;5053090;28;20037;-77
2024/01/10 02:54:26;;;;;;;30.13;15.82;;;-2.90;99.90;;;;;;5053105;28;20032;-77
2024/01/10 02:56:52;;;;;;;28.05;16.00;;;-2.80;99.90;;;;;;5048748;28;20093;-77
2024/01/10 02:59:18;;;;;;;24.17;14.75;;;-3.00;99.90;;;;;;5095063;28;20032;-76
2024/01/10 03:01:43;;;;;;;27.45;15.48;;;-3.00;99.90;;;;;;5069362;28;20032;-76
2024/01/10 03:04:09;;;;;;;29.40;14.38;;;-2.90;99.90;;;;;;5058939;28;20033;-76
2024/01/10 03:06:35;;;;;;;24.55;14.75;;;-2.80;99.90;;;;;;5100991;22;20047;-73
2024/01/10 03:09:01;;;;;;;24.90;14.05;;;-2.90;99.90;;;;;;5096224;28;20138;-77
2024/01/10 03:11:26;;;;;;;22.58;13.32;;;-2.80;99.90;;;;;;5096897;28;20173;-77
2024/01/10 03:14:01;;;;;;;25.20;14.35;;;-2.80;99.90;;;;;;5097148;28;20039;-77
2024/01/10 03:16:27;;;;;;;24.35;13.13;;;-2.80;99.90;;;;;;5096828;28;20047;-77
2024/01/10 03:18:53;;;;;;;25.15;12.80;;;-2.80;99.90;;;;;;5095813;28;20035;-77
2024/01/10 03:21:24;;;;;;;24.45;13.20;;;-2.70;99.90;;;;;;5096447;28;20040;-77
2024/01/10 03:24:00;;;;;;;24.65;14.85;;;-2.80;99.90;;;;;;5096709;28;20529;-77
2024/01/10 03:26:27;;;;;;;25.35;13.95;;;-2.80;99.90;;;;;;5114917;28;20035;-77
2024/01/10 03:28:53;;;;;;;22.73;14.90;;;-2.80;99.90;;;;;;5096912;28;20043;-77
2024/01/10 03:31:19;;;;;;;24.42;12.98;;;-2.80;99.90;;;;;;5096745;28;20032;-77
2024/01/10 03:33:45;;;;;;;21.50;13.07;;;-2.90;99.90;;;;;;5097024;28;20058;-76
2024/01/10 03:36:16;;;;;;;26.13;14.07;;;-2.90;99.90;;;;;;5114785;28;20047;-77
2024/01/10 03:38:43;;;;;;;25.17;13.15;;;-2.90;99.90;;;;;;5096270;28;20440;-77
2024/01/10 03:41:16;;;;;;;25.48;13.68;;;-2.80;99.90;;;;;;5096637;28;20040;-77
2024/01/10 03:43:43;;;;;;;27.23;13.88;;;-2.80;99.90;;;;;;5096526;28;20040;-77
2024/01/10 03:46:09;;;;;;;23.50;14.65;;;-2.90;99.90;;;;;;5096341;28;20101;-77
2024/01/10 03:48:34;;;;;;;25.40;14.98;;;-2.80;99.90;;;;;;5114504;28;20437;-76
2024/01/10 03:51:00;;;;;;;27.52;13.30;;;-2.90;99.90;;;;;;5096426;28;20039;-77
2024/01/10 03:53:26;;;;;;;23.50;13.70;;;-2.90;99.90;;;;;;5114618;28;20074;-76
2024/01/10 03:55:52;;;;;;;30.00;15.10;;;-2.90;99.90;;;;;;5114507;28;20031;-76
2024/01/10 03:58:18;;;;;;;24.70;14.13;;;-2.80;99.90;;;;;;5114158;28;20054;-77
2024/01/10 04:00:43;;;;;;;28.25;15.35;;;-2.90;99.90;;;;;;5114472;28;20039;-77
2024/01/10 04:03:09;;;;;;;27.23;14.77;;;-2.80;99.90;;;;;;5096162;28;20051;-77
2024/01/10 04:05:35;;;;;;;27.90;14.18;;;-2.80;99.90;;;;;;5114492;28;20164;-77
2024/01/10 04:08:00;;;;;;;27.35;12.70;;;-2.90;99.90;;;;;;5095770;28;20036;-77
2024/01/10 04:10:26;;;;;;;24.38;13.60;;;-2.90;99.90;;;;;;5096022;28;20118;-77
2024/01/10 04:12:51;;;;;;;25.58;13.90;;;-2.90;99.90;;;;;;5096184;28;20042;-77
2024/01/10 04:15:18;;;;;;;26.75;15.27;;;-2.90;99.90;;;;;;5095180;28;20635;-77
2024/01/10 04:17:43;;;;;;;28.17;15.85;;;-2.90;99.90;;;;;;5078819;28;20093;-77
2024/01/10 04:20:09;;;;;;;25.95;15.82;;;-3.00;99.90;;;;;;5095734;28;20039;-77
2024/01/10 04:22:35;;;;;;;28.92;15.50;;;-2.90;99.90;;;;;;5095900;28;20050;-77
2024/01/10 04:25:04;;;;;;;33.13;15.43;;;-2.90;99.90;;;;;;5095773;28;20035;-77
2024/01/10 04:27:30;;;;;;;28.23;16.17;;;-3.00;99.90;;;;;;5095332;28;20085;-76
2024/01/10 04:29:56;;;;;;;26.42;14.70;;;-2.90;99.90;;;;;;5113929;28;20044;-77
2024/01/10 04:32:21;;;;;;;28.00;15.48;;;-2.90;99.90;;;;;;5095452;28;20046;-77
2024/01/10 04:34:47;;;;;;;26.35;15.15;;;-2.90;99.90;;;;;;5078591;28;20046;-77
2024/01/10 04:37:14;;;;;;;27.67;16.02;;;-3.00;99.90;;;;;;5095211;28;20383;-77
2024/01/10 04:39:40;;;;;;;29.50;16.27;;;-3.10;99.90;;;;;;5078380;28;20035;-77
2024/01/10 04:42:06;;;;;;;26.45;16.15;;;-3.00;99.90;;;;;;5095256;28;20199;-77
2024/01/10 04:44:32;;;;;;;31.27;16.13;;;-3.00;99.90;;;;;;5113690;28;20039;-77
2024/01/10 04:46:57;;;;;;;28.65;15.40;;;-3.00;99.90;;;;;;5113363;28;20391;-77
2024/01/10 04:49:23;;;;;;;26.27;16.60;;;-3.00;99.90;;;;;;5078364;28;20038;-77
2024/01/10 04:51:50;;;;;;;25.45;15.95;;;-2.90;99.90;;;;;;5095105;28;20035;-75
2024/01/10 04:54:16;;;;;;;25.77;15.00;;;-2.90;99.90;;;;;;5113329;28;20035;-75
2024/01/10 04:56:41;;;;;;;29.88;16.02;;;-3.00;99.90;;;;;;5094797;28;20383;-75
2024/01/10 04:59:07;;;;;;;29.25;15.60;;;-2.90;99.90;;;;;;5094861;28;20043;-75
2024/01/10 05:01:33;;;;;;;30.58;16.25;;;-2.90;99.90;;;;;;5095067;28;20451;-75
2024/01/10 05:03:58;;;;;;;29.02;16.27;;;-3.00;99.90;;;;;;5094763;28;20074;-75
2024/01/10 05:06:24;;;;;;;29.55;17.67;;;-3.00;99.90;;;;;;5094964;28;20044;-76
2024/01/10 05:08:50;;;;;;;25.83;14.77;;;-2.90;99.90;;;;;;5094939;28;20077;-76
2024/01/10 05:11:16;;;;;;;29.23;16.60;;;-2.90;99.90;;;;;;5095053;28;20038;-76
2024/01/10 05:13:42;;;;;;;27.42;15.77;;;-3.00;99.90;;;;;;5112781;28;20075;-76
2024/01/10 05:16:08;;;;;;;28.00;15.18;;;-3.00;99.90;;;;;;5094409;28;20036;-77
2024/01/10 05:18:34;;;;;;;29.13;16.27;;;-3.10;99.90;;;;;;5094538;28;20043;-77
2024/01/10 05:21:00;;;;;;;30.13;16.30;;;-3.00;99.90;;;;;;5094561;28;20038;-76
2024/01/10 05:23:27;;;;;;;28.95;16.25;;;-3.10;99.90;;;;;;5094413;28;20506;-76
2024/01/10 05:25:53;;;;;;;27.75;15.52;;;-3.00;99.90;;;;;;5094039;28;20032;-76
2024/01/10 05:28:19;;;;;;;28.13;16.67;;;-3.10;99.90;;;;;;5094099;28;20398;-76
2024/01/10 05:30:44;;;;;;;30.40;17.40;;;-3.00;99.90;;;;;;5094397;28;20032;-76
2024/01/10 05:33:10;;;;;;;28.73;17.23;;;-3.10;99.90;;;;;;5094413;28;20084;-77
2024/01/10 05:35:39;;;;;;;35.92;17.45;;;-3.00;99.90;;;;;;5094283;28;20035;-76
2024/01/10 05:38:05;;;;;;;26.13;15.98;;;-3.10;99.90;;;;;;5093922;28;20047;-76
2024/01/10 05:40:31;;;;;;;27.27;16.35;;;-3.00;99.90;;;;;;5094406;28;20054;-76
2024/01/10 05:42:59;;;;;;;34.38;18.02;;;-3.10;99.90;;;;;;5077279;28;20442;-76
2024/01/10 05:45:25;;;;;;;34.13;17.70;;;-3.20;99.90;;;;;;5112468;28;20035;-76
2024/01/10 05:47:50;;;;;;;25.55;15.68;;;-3.20;99.90;;;;;;5093770;28;20047;-76
2024/01/10 05:50:17;;;;;;;29.73;16.75;;;-3.10;99.90;;;;;;5094051;28;20118;-76
2024/01/10 05:52:43;;;;;;;29.55;17.75;;;-3.20;99.90;;;;;;5094041;28;20035;-76
2024/01/10 05:55:09;;;;;;;37.90;18.38;;;-3.20;99.90;;;;;;5112126;28;20039;-76
2024/01/10 05:57:36;;;;;;;33.20;19.10;;;-3.30;99.90;;;;;;5093761;28;20035;-76
2024/01/10 06:00:03;;;;;;;30.95;17.50;;;-3.10;99.90;;;;;;5112177;28;20071;-76
2024/01/10 06:02:28;;;;;;;33.30;19.25;;;-3.20;99.90;;;;;;5093854;28;20047;-76
2024/01/10 06:04:54;;;;;;;28.08;17.60;;;-3.20;99.90;;;;;;5112130;28;20036;-77
2024/01/10 06:07:25;;;;;;;34.72;18.55;;;-3.20;99.90;;;;;;5093800;28;20085;-77
2024/01/10 06:09:51;;;;;;;31.17;18.52;;;-3.30;99.90;;;;;;5093150;28;20043;-77
2024/01/10 06:12:17;;;;;;;32.72;18.40;;;-3.20;99.90;;;;;;5093854;28;20577;-77
2024/01/10 06:14:43;;;;;;;37.47;18.50;;;-3.30;99.90;;;;;;5112046;28;20114;-77
2024/01/10 06:17:08;;;;;;;32.15;18.30;;;-3.40;99.90;;;;;;5093735;28;20181;-77
2024/01/10 06:19:34;;;;;;;34.90;19.35;;;-3.30;99.90;;;;;;5111922;28;20494;-77
2024/01/10 06:21:59;;;;;;;33.80;18.27;;;-3.30;99.90;;;;;;5093723;28;20124;-77
2024/01/10 06:24:26;;;;;;;30.52;17.00;;;-3.20;99.90;;;;;;5093634;28;20051;-77
2024/01/10 06:26:52;;;;;;;35.50;17.90;;;-3.20;99.90;;;;;;5111647;28;20521;-76
2024/01/10 06:29:18;;;;;;;32.03;19.35;;;-3.30;99.90;;;;;;5093396;28;20122;-77
2024/01/10 06:31:44;;;;;;;37.55;19.58;;;-3.30;99.90;;;;;;5093585;28;20634;-77
2024/01/10 06:34:10;;;;;;;37.55;20.05;;;-3.20;99.90;;;;;;5111843;28;20045;-77
2024/01/10 06:36:36;;;;;;;32.88;18.65;;;-3.20;99.90;;;;;;5093416;28;20464;-77
2024/01/10 06:39:01;;;;;;;32.33;18.52;;;-3.30;99.90;;;;;;5096395;28;20039;-77
2024/01/10 06:41:27;;;;;;;29.90;16.85;;;-3.30;99.90;;;;;;5097677;28;20122;-76
2024/01/10 06:43:53;;;;;;;34.17;18.30;;;-3.30;99.90;;;;;;5097198;28;20082;-76
2024/01/10 06:46:19;;;;;;;32.05;18.70;;;-3.30;99.90;;;;;;5097308;28;20107;-76
2024/01/10 06:48:45;;;;;;;31.67;18.05;;;-3.30;99.90;;;;;;5097401;28;20503;-76
2024/01/10 06:51:13;;;;;;;33.67;18.60;;;-3.20;99.90;;;;;;5097472;28;20039;-76
2024/01/10 06:53:39;;;;;;;37.38;18.63;;;-3.30;99.90;;;;;;5080541;28;20043;-76
2024/01/10 06:56:05;;;;;;;31.92;17.52;;;-3.30;99.90;;;;;;5097315;28;20040;-76
2024/01/10 06:58:31;;;;;;;33.08;19.08;;;-3.30;99.90;;;;;;5115299;28;20043;-76
2024/01/10 07:00:56;;;;;;;31.63;18.27;;;-3.30;99.90;;;;;;5097438;28;20411;-76
2024/01/10 07:03:22;;;;;;;33.70;17.85;;;-3.30;99.90;;;;;;5097047;28;20499;-74
2024/01/10 07:05:48;;;;;;;29.35;16.88;;;-3.40;99.90;;;;;;5097307;28;20042;-75
2024/01/10 07:08:14;;;;;;;29.55;15.57;;;-3.40;99.90;;;;;;5096903;28;20040;-75
2024/01/10 07:10:40;;;;;;;31.88;17.35;;;-3.50;99.90;;;;;;5096765;28;20036;-75
2024/01/10 07:13:06;;;;;;;38.55;17.50;;;-3.50;99.90;;;;;;5097063;28;20036;-75
2024/01/10 07:15:32;;;;;;;33.60;17.35;;;-3.50;99.90;;;;;;5096917;28;20386;-75
2024/01/10 07:17:57;;;;;;;40.33;19.73;;;-3.40;99.90;;;;;;5096553;28;20127;-75
2024/01/10 07:20:23;;;;;;;35.42;18.85;;;-3.50;99.90;;;;;;5115201;28;20071;-75
2024/01/10 07:22:51;;;;;;;36.08;18.17;;;-3.50;99.90;;;;;;5115025;28;20567;-75
2024/01/10 07:25:17;;;;;;;35.88;17.27;;;-3.50;99.90;;;;;;5097520;28;20485;-76
2024/01/10 07:27:43;;;;;;;35.22;16.55;;;-3.60;99.90;;;;;;5096440;28;20035;-76
2024/01/10 07:30:15;;;;;;;35.53;17.92;;;-3.50;99.90;;;;;;5096879;28;20401;-75
2024/01/10 07:32:45;;;;;;;36.22;17.40;;;-3.50;99.90;;;;;;5096817;28;20043;-76
2024/01/10 07:35:13;;;;;;;37.60;17.65;;;-3.50;99.90;;;;;;5096213;28;20129;-76
2024/01/10 07:37:41;;;;;;;34.80;18.23;;;-3.50;99.90;;;;;;5114644;28;20028;-76
2024/01/10 07:40:08;;;;;;;37.15;17.30;;;-3.60;99.90;;;;;;5096519;28;20040;-76
2024/01/10 07:42:34;;;;;;;32.70;16.27;;;-3.50;99.90;;;;;;5079804;28;20122;-77
2024/01/10 07:45:03;;;;;;;36.80;17.63;;;-3.50;99.90;;;;;;5098309;28;20127;-76
2024/01/10 07:47:34;;;;;;;37.92;17.42;;;-3.70;99.90;;;;;;5079808;28;20074;-75
2024/01/10 07:49:59;;;;;;;31.83;15.02;;;-3.60;99.90;;;;;;5114026;28;20262;-75
2024/01/10 07:52:26;;;;;;;32.67;16.23;;;-3.70;99.90;;;;;;5097095;28;20067;-75
2024/01/10 07:54:51;;;;;;;37.75;18.98;;;-3.60;99.90;;;;;;5097290;28;20471;-75
2024/01/10 07:57:19;;;;;;;32.95;15.48;;;-3.70;99.90;;;;;;5114848;28;20084;-77
2024/01/10 07:59:47;;;;;;;33.55;14.73;;;-3.70;99.90;;;;;;5080373;28;20108;-76
2024/01/10 08:02:13;;;;;;;36.53;15.15;;;-3.70;99.90;;;;;;5114872;28;20042;-76
2024/01/10 08:04:38;;;;;;;31.92;15.43;;;-3.60;99.90;;;;;;5114136;28;20040;-76
2024/01/10 08:07:04;;;;;;;31.08;14.30;;;-3.70;99.90;;;;;;5104023;27;20114;-75
2024/01/10 08:09:30;;;;;;;35.38;15.07;;;-3.60;99.90;;;;;;5108632;27;20042;-76
2024/01/10 08:11:55;;;;;;;41.33;16.80;;;-3.50;99.90;;;;;;5113083;27;20035;-76
2024/01/10 08:14:21;;;;;;;34.75;15.00;;;-3.60;99.90;;;;;;5134594;27;20046;-76
2024/01/10 08:16:46;;;;;;;34.88;14.13;;;-3.40;99.90;;;;;;5116226;27;20062;-76
2024/01/10 08:19:12;;;;;;;38.58;13.70;;;-3.60;99.90;;;;;;5134610;27;20039;-76
2024/01/10 08:21:38;;;;;;;30.33;12.77;;;-3.60;99.90;;;;;;5116104;27;20480;-76
2024/01/10 08:24:04;;;;;;;35.90;14.13;;;-3.50;99.90;;;;;;5099190;27;20039;-76
2024/01/10 08:26:30;;;;;;;31.60;13.25;;;-3.30;99.90;;;;;;5099363;27;20053;-77
2024/01/10 08:28:56;;;;;;;32.90;12.60;;;-3.50;99.90;;;;;;5116618;27;20042;-77
2024/01/10 08:31:22;;;;;;;31.10;14.43;;;-3.50;99.90;;;;;;5116129;27;20035;-76
2024/01/10 08:33:48;;;;;;;30.23;13.48;;;-3.40;99.90;;;;;;5116890;27;20111;-76
2024/01/10 08:36:16;;;;;;;34.65;15.15;;;-3.30;99.90;;;;;;5116111;27;20066;-76
2024/01/10 08:38:42;;;;;;;37.80;15.15;;;-3.40;99.90;;;;;;5115929;27;20035;-74
2024/01/10 08:41:11;;;;;;;32.67;14.98;;;-3.40;99.90;;;;;;5115402;27;20608;-74
2024/01/10 08:43:37;;;;;;;32.05;14.52;;;-3.30;99.90;;;;;;5133996;27;20081;-74
2024/01/10 08:46:02;;;;;;;32.70;15.52;;;-3.20;99.90;;;;;;5115590;27;20133;-74
2024/01/10 08:48:28;;;;;;;27.15;12.82;;;-3.30;99.90;;;;;;5115302;27;20568;-71
2024/01/10 08:50:55;;;;;;;32.13;13.68;;;-3.30;99.90;;;;;;5134074;27;20043;-71
2024/01/10 08:53:22;;;;;;;27.05;11.73;;;-3.10;99.90;;;;;;5121437;27;20086;-72
2024/01/10 08:55:48;;;;;;;32.55;12.85;;;-3.00;99.90;;;;;;5105280;27;20035;-72
2024/01/10 08:58:13;;;;;;;31.88;12.65;;;-3.00;99.90;;;;;;5085705;27;20035;-72
2024/01/10 09:00:39;;;;;;;26.45;12.50;;;-2.90;99.90;;;;;;5123472;27;20071;-71
2024/01/10 09:03:04;;;;;;;30.42;12.30;;;-2.90;99.90;;;;;;5103734;28;20047;-71
2024/01/10 09:05:30;;;;;;;29.73;12.52;;;-2.90;99.90;;;;;;5105019;27;20039;-72
2024/01/10 09:07:57;;;;;;;32.03;12.98;;;-2.80;99.90;;;;;;5100340;22;20048;-71
2024/01/10 09:10:23;;;;;;;26.38;11.48;;;-2.90;99.90;;;;;;5083090;28;20047;-71
2024/01/10 09:12:49;;;;;;;27.95;12.25;;;-2.90;99.90;;;;;;5063428;28;20606;-71
2024/01/10 09:15:15;;;;;;;27.58;12.70;;;-2.80;99.90;;;;;;5076671;28;20039;-70
2024/01/10 09:17:44;;;;;;;26.92;12.55;;;-2.80;99.90;;;;;;5077719;28;20553;-71
2024/01/10 09:20:11;;;;;;;26.45;11.57;;;-2.70;99.90;;;;;;5070620;28;20036;-70
2024/01/10 09:22:37;;;;;;;29.83;11.85;;;-2.80;99.90;;;;;;5072288;28;20041;-70
2024/01/10 09:25:08;;;;;;;30.27;13.45;;;-2.70;99.90;;;;;;5071128;28;20041;-71
2024/01/10 09:27:35;;;;;;;29.17;12.32;;;-2.70;99.90;;;;;;5071196;28;20107;-70
2024/01/10 09:30:10;;;;;;;29.33;12.90;;;-2.60;99.90;;;;;;5070650;28;20040;-70
2024/01/10 09:32:36;;;;;;;29.60;11.80;;;-2.60;99.90;;;;;;5071983;28;20036;-70
2024/01/10 09:35:02;;;;;;;23.08;11.77;;;-2.70;99.90;;;;;;5071907;28;20086;-70
2024/01/10 09:37:28;;;;;;;27.92;11.90;;;-2.50;99.90;;;;;;5053567;28;20531;-71
2024/01/10 09:39:53;;;;;;;30.50;11.90;;;-2.50;99.90;;;;;;5070176;28;20068;-71
2024/01/10 09:42:25;;;;;;;26.10;10.73;;;-2.50;99.90;;;;;;5070578;28;20113;-71
2024/01/10 09:44:54;;;;;;;27.17;12.48;;;-2.50;99.90;;;;;;5070468;28;20424;-71
2024/01/10 09:47:20;;;;;;;27.67;13.15;;;-2.50;99.90;;;;;;5071689;28;20064;-71
2024/01/10 09:49:46;;;;;;;26.30;12.10;;;-2.50;99.90;;;;;;5070257;28;20033;-71
2024/01/10 09:52:24;;;;;;;24.92;10.73;;;-2.50;99.90;;;;;;5070578;28;20043;-71
2024/01/10 09:54:54;;;;;;;27.95;11.07;;;-2.40;99.90;;;;;;5070512;28;20140;-71
2024/01/10 09:57:20;;;;;;;30.38;12.50;;;-2.40;99.90;;;;;;5071608;28;20044;-71
2024/01/10 09:59:47;;;;;;;27.63;11.70;;;-2.30;99.90;;;;;;5070204;28;20488;-70
2024/01/10 10:02:16;;;;;;;28.98;11.70;;;-2.30;99.90;;;;;;5070445;28;20082;-70
2024/01/10 10:04:51;;;;;;;28.85;11.30;;;-2.30;99.90;;;;;;5069981;28;20036;-70
2024/01/10 10:07:17;;;;;;;26.02;12.45;;;-2.30;99.90;;;;;;5069810;28;20048;-71
2024/01/10 10:09:43;;;;;;;23.05;10.57;;;-2.30;99.90;;;;;;5062748;28;20039;-70
2024/01/10 10:12:08;;;;;;;24.15;11.43;;;-2.20;99.90;;;;;;5062436;28;20032;-71
2024/01/10 10:14:34;;;;;;;26.98;11.63;;;-2.20;99.90;;;;;;5062041;28;20047;-71
2024/01/10 10:17:16;;;;;;;26.52;11.63;;;-2.20;99.90;;;;;;5060289;28;20109;-71
2024/01/10 10:19:42;;;;;;;26.73;11.93;;;-2.20;99.90;;;;;;5067543;28;20422;-70
2024/01/10 10:22:09;;;;;;;23.38;11.32;;;-2.10;99.90;;;;;;5042811;28;20124;-70
2024/01/10 10:24:35;;;;;;;27.08;10.77;;;-2.10;99.90;;;;;;5059970;28;20037;-70
2024/01/10 10:27:00;;;;;;;29.02;11.60;;;-2.10;99.90;;;;;;5060332;28;20074;-70
2024/01/10 10:29:26;;;;;;;22.27;10.77;;;-2.00;99.90;;;;;;5049637;28;20041;-70
2024/01/10 10:31:51;;;;;;;24.92;10.50;;;-2.00;99.90;;;;;;5050040;28;20037;-70
2024/01/10 10:34:23;;;;;;;23.50;10.43;;;-1.90;99.90;;;;;;5059138;28;20516;-71
2024/01/10 10:36:49;;;;;;;21.23;10.88;;;-1.90;99.90;;;;;;5069581;28;20040;-70
2024/01/10 10:39:17;;;;;;;24.15;10.75;;;-1.80;99.90;;;;;;5071060;28;20043;-70
2024/01/10 10:41:43;;;;;;;28.67;11.43;;;-1.80;99.90;;;;;;5060438;28;20037;-71
2024/01/10 10:44:12;;;;;;;24.23;10.75;;;-1.80;99.90;;;;;;5059041;28;20036;-71
2024/01/10 10:46:39;;;;;;;24.83;11.50;;;-1.60;99.90;;;;;;5061035;28;20029;-70
2024/01/10 10:49:11;;;;;;;21.77;10.77;;;-1.70;99.90;;;;;;5059701;28;20111;-70
2024/01/10 10:51:38;;;;;;;24.85;10.57;;;-1.70;99.90;;;;;;5060967;28;20094;-71
2024/01/10 10:54:04;;;;;;;25.92;9.98;;;-1.70;99.90;;;;;;5069356;28;20097;-74
2024/01/10 10:56:32;;;;;;;24.30;10.43;;;-1.70;99.90;;;;;;5068778;28;20040;-74
2024/01/10 10:59:00;;;;;;;28.27;11.23;;;-1.70;99.90;;;;;;5069832;28;20037;-74
2024/01/10 11:01:27;;;;;;;24.05;11.52;;;-1.70;99.90;;;;;;5069605;28;20435;-74
2024/01/10 11:03:54;;;;;;;21.40;10.43;;;-1.60;99.90;;;;;;5069952;28;20045;-74
2024/01/10 11:06:22;;;;;;;28.38;10.95;;;-1.60;99.90;;;;;;5053152;28;20443;-74
2024/01/10 11:08:56;;;;;;;23.92;10.55;;;-1.60;99.90;;;;;;5069292;28;20515;-72
2024/01/10 11:11:31;;;;;;;21.83;9.13;;;-1.60;99.90;;;;;;5064296;28;20037;-73
2024/01/10 11:14:04;;;;;;;21.25;10.32;;;-1.30;99.90;;;;;;5075527;28;20123;-71
2024/01/10 11:16:46;;;;;;;25.80;11.95;;;-1.30;99.90;;;;;;5055428;28;20530;-72
2024/01/10 11:19:30;;;;;;;22.30;9.93;;;-1.30;99.90;;;;;;5051140;28;20072;-72
2024/01/10 11:22:05;;;;;;;18.83;9.55;;;-1.20;99.90;;;;;;5032723;28;20047;-72
2024/01/10 11:24:31;;;;;;;18.77;9.40;;;-1.10;99.90;;;;;;5052832;28;20159;-72
2024/01/10 11:27:10;;;;;;;17.27;8.98;;;-1.10;99.90;;;;;;5053887;28;20520;-72
2024/01/10 11:29:40;;;;;;;24.38;11.73;;;-1.10;99.90;;;;;;5045150;28;20037;-72
2024/01/10 11:32:16;;;;;;;19.35;9.93;;;-1.00;99.90;;;;;;5063615;28;20032;-73
2024/01/10 11:35:18;;;;;;;17.77;8.52;;;-1.10;99.90;;;;;;5074208;28;20049;-72
2024/01/10 11:37:45;;;;;;;22.35;9.68;;;-1.00;99.90;;;;;;5066223;28;20048;-72
2024/01/10 11:40:12;;;;;;;20.00;9.25;;;-1.00;99.90;;;;;;5063616;28;20615;-72
2024/01/10 11:42:42;;;;;;;25.67;10.68;;;-1.00;99.90;;;;;;5063407;28;20489;-72
2024/01/10 11:45:08;;;;;;;21.50;9.38;;;-1.00;99.90;;;;;;5061252;28;20059;-72
2024/01/10 11:47:34;;;;;;;19.48;9.18;;;-0.90;99.90;;;;;;5068265;28;20158;-72
2024/01/10 11:50:02;;;;;;;18.45;9.38;;;-0.90;99.90;;;;;;5059555;28;20040;-72
2024/01/10 11:52:37;;;;;;;21.25;9.27;;;-0.90;99.90;;;;;;5071797;28;20509;-71
2024/01/10 11:55:04;;;;;;;20.40;9.10;;;-0.90;99.90;;;;;;5064588;28;20458;-71
2024/01/10 11:57:33;;;;;;;19.02;9.95;;;-0.90;99.90;;;;;;5072393;28;20504;-73
2024/01/10 12:00:00;;;;;;;20.55;9.00;;;-0.90;99.90;;;;;;5073849;28;20098;-73
2024/01/10 12:02:27;;;;;;;24.30;10.70;;;-0.80;99.90;;;;;;5055791;28;20499;-73
2024/01/10 12:04:54;;;;;;;24.27;10.18;;;-0.80;99.90;;;;;;5073939;28;20471;-73
2024/01/10 12:07:20;;;;;;;24.70;10.38;;;-0.80;99.90;;;;;;5072140;28;20048;-72
2024/01/10 12:09:48;;;;;;;19.27;9.25;;;-0.80;99.90;;;;;;5072234;28;20047;-73
2024/01/10 12:12:15;;;;;;;21.48;11.38;;;-0.70;99.90;;;;;;5072560;28;20132;-73
2024/01/10 12:14:43;;;;;;;22.08;9.90;;;-0.70;99.90;;;;;;5072257;28;20039;-73
2024/01/10 12:17:08;;;;;;;21.15;10.13;;;-0.70;99.90;;;;;;5063186;28;20056;-73
2024/01/10 12:19:38;;;;;;;27.38;11.43;;;-0.70;99.90;;;;;;5072229;28;20048;-73
2024/01/10 12:22:07;;;;;;;20.42;9.63;;;-0.70;99.90;;;;;;5071973;28;20496;-72
2024/01/10 12:24:33;;;;;;;17.10;9.27;;;-0.70;99.90;;;;;;5073112;28;20041;-74
2024/01/10 12:26:59;;;;;;;18.92;8.90;;;-0.70;99.90;;;;;;5073185;28;20063;-73